MMCL/CUL METAR and TAF weather

Enter ICAO airport designator
Station Type Date Time Source
MMCL METAR 2021/03/01 21:45 UTC NOAA

MMCL 012145Z 30008KT 10SM FEW100 SCT140 BKN250 28/09 A2984 RMK 8/078 HZY


Station Type Date Time Source
MMCL Decoded METAR 2021/03/01 21:45 UTC NOAA

Culiacan, Sin., Mexico (MMCL) 24-49N 107-24W
Mar 01, 2021 - 04:45 PM EST / 2021.03.01 2145 UTC
Wind: from the WNW (300 degrees) at 9 MPH (8 KT):0
Visibility: 10 mile(s):0
Sky conditions: mostly cloudy
Temperature: 82 F (28 C)
Dew Point: 48 F (9 C)
Relative Humidity: 30%
Pressure (altimeter): 29.84 in. Hg (1010 hPa)
ob: MMCL 012145Z 30008KT 10SM FEW100 SCT140 BKN250 28/09 A2984 RMK 8/078 HZY
cycle: 22

Station Type Date Time Source
MMCL TAF 2021/03/01 18:28 UTC NOAA

TAF MMCL 011723Z 0118/0218 30008KT P6SM SCT100 BKN250
BECMG 0120/0121 33015KT
FM020300 06005KT P6SM SCT250
FM021700 24010KT P6SM SCT250

Example: see airport list